sensor_id;sensor_type;location;lat;lon;timestamp;temperature;humidity
13713;DHT22;6928;50.546;7.120;2023-02-28T00:00:49;-0.23;76.05
13713;DHT22;6928;50.546;7.120;2023-02-28T00:03:16;-0.30;76.50
13713;DHT22;6928;50.546;7.120;2023-02-28T00:05:43;-0.46;76.78
13713;DHT22;6928;50.546;7.120;2023-02-28T00:08:09;-0.14;76.12
13713;DHT22;6928;50.546;7.120;2023-02-28T00:10:36;-0.30;76.28
13713;DHT22;6928;50.546;7.120;2023-02-28T00:13:05;-0.28;76.07
13713;DHT22;6928;50.546;7.120;2023-02-28T00:15:32;-0.57;76.85
13713;DHT22;6928;50.546;7.120;2023-02-28T00:17:59;-0.33;76.54
13713;DHT22;6928;50.546;7.120;2023-02-28T00:20:26;-0.46;76.30
13713;DHT22;6928;50.546;7.120;2023-02-28T00:22:53;-0.36;76.48
13713;DHT22;6928;50.546;7.120;2023-02-28T00:25:22;-0.49;76.48
13713;DHT22;6928;50.546;7.120;2023-02-28T00:27:49;-0.33;76.32
13713;DHT22;6928;50.546;7.120;2023-02-28T00:30:18;-0.47;76.38
13713;DHT22;6928;50.546;7.120;2023-02-28T00:32:45;-0.64;76.82
13713;DHT22;6928;50.546;7.120;2023-02-28T00:35:12;-0.78;78.45
13713;DHT22;6928;50.546;7.120;2023-02-28T00:37:38;-0.84;77.50
13713;DHT22;6928;50.546;7.120;2023-02-28T00:40:06;-0.81;77.56
13713;DHT22;6928;50.546;7.120;2023-02-28T00:42:33;-0.80;77.29
13713;DHT22;6928;50.546;7.120;2023-02-28T00:45:00;-0.81;77.44
13713;DHT22;6928;50.546;7.120;2023-02-28T00:47:30;-0.80;77.27
13713;DHT22;6928;50.546;7.120;2023-02-28T00:49:57;-0.88;77.69
13713;DHT22;6928;50.546;7.120;2023-02-28T00:52:23;-0.89;78.03
13713;DHT22;6928;50.546;7.120;2023-02-28T00:54:50;-0.98;78.40
13713;DHT22;6928;50.546;7.120;2023-02-28T00:57:16;-0.92;77.71
13713;DHT22;6928;50.546;7.120;2023-02-28T00:59:43;-0.94;77.97
13713;DHT22;6928;50.546;7.120;2023-02-28T01:02:09;-0.91;78.46
13713;DHT22;6928;50.546;7.120;2023-02-28T01:04:37;-0.95;77.87
13713;DHT22;6928;50.546;7.120;2023-02-28T01:07:04;-1.05;78.42
13713;DHT22;6928;50.546;7.120;2023-02-28T01:09:30;-0.95;78.48
13713;DHT22;6928;50.546;7.120;2023-02-28T01:11:57;-0.99;78.72
13713;DHT22;6928;50.546;7.120;2023-02-28T01:14:24;-0.84;78.10
13713;DHT22;6928;50.546;7.120;2023-02-28T01:16:50;-0.67;77.69
13713;DHT22;6928;50.546;7.120;2023-02-28T01:19:17;-0.73;78.02
13713;DHT22;6928;50.546;7.120;2023-02-28T01:21:45;-0.78;77.99
13713;DHT22;6928;50.546;7.120;2023-02-28T01:24:12;-0.73;78.17
13713;DHT22;6928;50.546;7.120;2023-02-28T01:26:38;-0.78;78.27
13713;DHT22;6928;50.546;7.120;2023-02-28T01:29:05;-0.76;78.49
13713;DHT22;6928;50.546;7.120;2023-02-28T01:31:32;-0.70;78.36
13713;DHT22;6928;50.546;7.120;2023-02-28T01:33:59;-0.74;78.22
13713;DHT22;6928;50.546;7.120;2023-02-28T01:36:25;-0.71;78.08
13713;DHT22;6928;50.546;7.120;2023-02-28T01:38:54;-0.84;78.69
13713;DHT22;6928;50.546;7.120;2023-02-28T01:41:22;-0.80;78.69
13713;DHT22;6928;50.546;7.120;2023-02-28T01:44:01;-0.98;79.11
13713;DHT22;6928;50.546;7.120;2023-02-28T01:46:32;-1.08;79.34
13713;DHT22;6928;50.546;7.120;2023-02-28T01:49:08;-0.81;78.45
13713;DHT22;6928;50.546;7.120;2023-02-28T01:51:40;-0.68;77.97
13713;DHT22;6928;50.546;7.120;2023-02-28T01:54:16;-0.94;78.32
13713;DHT22;6928;50.546;7.120;2023-02-28T01:56:46;-0.85;78.28
13713;DHT22;6928;50.546;7.120;2023-02-28T01:59:18;-1.02;78.69
13713;DHT22;6928;50.546;7.120;2023-02-28T02:01:46;-1.12;79.44
13713;DHT22;6928;50.546;7.120;2023-02-28T02:04:13;-1.19;79.70
13713;DHT22;6928;50.546;7.120;2023-02-28T02:06:43;-1.08;79.62
13713;DHT22;6928;50.546;7.120;2023-02-28T02:09:12;-1.09;79.77
13713;DHT22;6928;50.546;7.120;2023-02-28T02:11:40;-1.14;79.54
13713;DHT22;6928;50.546;7.120;2023-02-28T02:14:34;-1.07;79.15
13713;DHT22;6928;50.546;7.120;2023-02-28T02:17:14;-1.18;78.74
13713;DHT22;6928;50.546;7.120;2023-02-28T02:20:07;-0.92;78.11
13713;DHT22;6928;50.546;7.120;2023-02-28T02:25:34;-1.02;79.28
13713;DHT22;6928;50.546;7.120;2023-02-28T02:28:41;-1.25;80.32
13713;DHT22;6928;50.546;7.120;2023-02-28T02:37:14;-1.01;79.79
13713;DHT22;6928;50.546;7.120;2023-02-28T02:39:47;-1.02;79.14
13713;DHT22;6928;50.546;7.120;2023-02-28T02:42:21;-1.28;79.42
13713;DHT22;6928;50.546;7.120;2023-02-28T02:44:53;-1.31;80.05
13713;DHT22;6928;50.546;7.120;2023-02-28T02:47:24;-1.15;79.69
13713;DHT22;6928;50.546;7.120;2023-02-28T02:49:55;-1.31;79.58
13713;DHT22;6928;50.546;7.120;2023-02-28T02:52:25;-1.67;80.62
13713;DHT22;6928;50.546;7.120;2023-02-28T02:54:57;-1.22;79.84
13713;DHT22;6928;50.546;7.120;2023-02-28T02:57:27;-1.24;79.12
13713;DHT22;6928;50.546;7.120;2023-02-28T02:59:56;-1.50;79.44
13713;DHT22;6928;50.546;7.120;2023-02-28T03:02:23;-1.62;79.92
13713;DHT22;6928;50.546;7.120;2023-02-28T03:04:56;-1.73;80.41
13713;DHT22;6928;50.546;7.120;2023-02-28T03:07:26;-1.56;80.31
13713;DHT22;6928;50.546;7.120;2023-02-28T03:09:53;-1.60;80.36
13713;DHT22;6928;50.546;7.120;2023-02-28T03:12:22;-1.90;82.20
13713;DHT22;6928;50.546;7.120;2023-02-28T03:14:56;-1.60;80.35
13713;DHT22;6928;50.546;7.120;2023-02-28T03:17:34;-1.86;80.47
13713;DHT22;6928;50.546;7.120;2023-02-28T03:20:10;-1.81;80.79
13713;DHT22;6928;50.546;7.120;2023-02-28T03:22:48;-1.50;80.08
13713;DHT22;6928;50.546;7.120;2023-02-28T03:25:22;-1.62;80.20
13713;DHT22;6928;50.546;7.120;2023-02-28T03:28:00;-1.81;80.46
13713;DHT22;6928;50.546;7.120;2023-02-28T03:30:35;-1.98;80.88
13713;DHT22;6928;50.546;7.120;2023-02-28T03:33:07;-1.91;81.21
13713;DHT22;6928;50.546;7.120;2023-02-28T03:35:38;-1.87;82.22
13713;DHT22;6928;50.546;7.120;2023-02-28T03:38:09;-1.87;81.64
13713;DHT22;6928;50.546;7.120;2023-02-28T03:40:42;-1.91;81.70
13713;DHT22;6928;50.546;7.120;2023-02-28T03:43:12;-1.90;81.02
13713;DHT22;6928;50.546;7.120;2023-02-28T03:45:40;-1.84;81.19
13713;DHT22;6928;50.546;7.120;2023-02-28T03:48:13;-1.98;81.31
13713;DHT22;6928;50.546;7.120;2023-02-28T03:50:46;-1.93;81.02
13713;DHT22;6928;50.546;7.120;2023-02-28T03:53:16;-2.14;81.70
13713;DHT22;6928;50.546;7.120;2023-02-28T03:55:48;-2.07;81.62
13713;DHT22;6928;50.546;7.120;2023-02-28T03:58:20;-2.07;81.29
13713;DHT22;6928;50.546;7.120;2023-02-28T04:00:50;-2.17;81.22
13713;DHT22;6928;50.546;7.120;2023-02-28T04:03:19;-1.88;80.31
13713;DHT22;6928;50.546;7.120;2023-02-28T04:05:50;-2.02;80.51
13713;DHT22;6928;50.546;7.120;2023-02-28T04:08:17;-2.09;80.92
13713;DHT22;6928;50.546;7.120;2023-02-28T04:10:45;-1.90;79.93
13713;DHT22;6928;50.546;7.120;2023-02-28T04:13:13;-1.97;80.17
13713;DHT22;6928;50.546;7.120;2023-02-28T04:15:40;-2.02;80.34
13713;DHT22;6928;50.546;7.120;2023-02-28T04:18:06;-2.02;80.18
13713;DHT22;6928;50.546;7.120;2023-02-28T04:20:33;-2.15;80.53
13713;DHT22;6928;50.546;7.120;2023-02-28T04:23:01;-1.97;80.06
13713;DHT22;6928;50.546;7.120;2023-02-28T04:25:27;-2.21;80.86
13713;DHT22;6928;50.546;7.120;2023-02-28T04:27:54;-2.26;81.09
13713;DHT22;6928;50.546;7.120;2023-02-28T04:30:20;-2.28;81.25
13713;DHT22;6928;50.546;7.120;2023-02-28T04:32:47;-2.45;81.29
13713;DHT22;6928;50.546;7.120;2023-02-28T04:35:13;-2.59;81.42
13713;DHT22;6928;50.546;7.120;2023-02-28T04:37:40;-2.52;81.80
13713;DHT22;6928;50.546;7.120;2023-02-28T04:40:10;-2.22;80.90
13713;DHT22;6928;50.546;7.120;2023-02-28T04:42:36;-2.45;81.18
13713;DHT22;6928;50.546;7.120;2023-02-28T04:45:04;-2.44;81.45
13713;DHT22;6928;50.546;7.120;2023-02-28T04:47:30;-2.26;81.01
13713;DHT22;6928;50.546;7.120;2023-02-28T04:49:57;-2.34;81.01
13713;DHT22;6928;50.546;7.120;2023-02-28T04:52:24;-2.48;81.17
13713;DHT22;6928;50.546;7.120;2023-02-28T04:54:50;-2.56;81.61
13713;DHT22;6928;50.546;7.120;2023-02-28T04:57:18;-2.52;81.76
13713;DHT22;6928;50.546;7.120;2023-02-28T04:59:45;-2.41;81.04
13713;DHT22;6928;50.546;7.120;2023-02-28T05:02:11;-2.45;80.89
13713;DHT22;6928;50.546;7.120;2023-02-28T05:04:38;-2.29;80.52
13713;DHT22;6928;50.546;7.120;2023-02-28T05:07:04;-2.38;80.58
13713;DHT22;6928;50.546;7.120;2023-02-28T05:09:31;-2.44;80.69
13713;DHT22;6928;50.546;7.120;2023-02-28T05:11:59;-2.41;80.34
13713;DHT22;6928;50.546;7.120;2023-02-28T05:14:27;-2.41;80.56
13713;DHT22;6928;50.546;7.120;2023-02-28T05:16:53;-2.73;81.08
13713;DHT22;6928;50.546;7.120;2023-02-28T05:19:21;-2.80;82.09
13713;DHT22;6928;50.546;7.120;2023-02-28T05:21:52;-2.91;82.47
13713;DHT22;6928;50.546;7.120;2023-02-28T05:24:21;-2.96;81.48
13713;DHT22;6928;50.546;7.120;2023-02-28T05:26:50;-2.90;81.44
13713;DHT22;6928;50.546;7.120;2023-02-28T05:29:17;-2.73;81.31
13713;DHT22;6928;50.546;7.120;2023-02-28T05:31:46;-2.80;81.29
13713;DHT22;6928;50.546;7.120;2023-02-28T05:34:12;-2.83;81.64
13713;DHT22;6928;50.546;7.120;2023-02-28T05:36:40;-2.75;81.03
13713;DHT22;6928;50.546;7.120;2023-02-28T05:39:07;-2.66;80.60
13713;DHT22;6928;50.546;7.120;2023-02-28T05:41:40;-2.72;80.97
13713;DHT22;6928;50.546;7.120;2023-02-28T05:44:07;-2.63;80.46
13713;DHT22;6928;50.546;7.120;2023-02-28T05:46:34;-2.83;80.81
13713;DHT22;6928;50.546;7.120;2023-02-28T05:49:03;-2.86;81.26
13713;DHT22;6928;50.546;7.120;2023-02-28T05:51:29;-2.90;81.54
13713;DHT22;6928;50.546;7.120;2023-02-28T05:53:59;-2.88;82.16
13713;DHT22;6928;50.546;7.120;2023-02-28T05:56:26;-2.75;81.59
13713;DHT22;6928;50.546;7.120;2023-02-28T05:58:53;-2.90;81.21
13713;DHT22;6928;50.546;7.120;2023-02-28T06:01:22;-2.76;81.27
13713;DHT22;6928;50.546;7.120;2023-02-28T06:03:49;-3.04;81.14
13713;DHT22;6928;50.546;7.120;2023-02-28T06:06:17;-2.90;81.20
13713;DHT22;6928;50.546;7.120;2023-02-28T06:08:44;-3.11;81.20
13713;DHT22;6928;50.546;7.120;2023-02-28T06:11:11;-3.07;82.14
13713;DHT22;6928;50.546;7.120;2023-02-28T06:13:37;-3.11;82.15
13713;DHT22;6928;50.546;7.120;2023-02-28T06:16:04;-3.55;84.15
13713;DHT22;6928;50.546;7.120;2023-02-28T06:18:31;-3.18;82.87
13713;DHT22;6928;50.546;7.120;2023-02-28T06:20:57;-3.19;82.81
13713;DHT22;6928;50.546;7.120;2023-02-28T06:23:25;-3.36;82.07
13713;DHT22;6928;50.546;7.120;2023-02-28T06:25:52;-3.35;82.73
13713;DHT22;6928;50.546;7.120;2023-02-28T06:28:21;-3.08;81.98
13713;DHT22;6928;50.546;7.120;2023-02-28T06:30:47;-3.27;82.54
13713;DHT22;6928;50.546;7.120;2023-02-28T06:33:14;-3.05;82.69
13713;DHT22;6928;50.546;7.120;2023-02-28T06:35:43;-3.07;82.19
13713;DHT22;6928;50.546;7.120;2023-02-28T06:38:10;-3.09;82.57
13713;DHT22;6928;50.546;7.120;2023-02-28T06:40:38;-3.17;82.53
13713;DHT22;6928;50.546;7.120;2023-02-28T06:43:05;-2.94;82.13
13713;DHT22;6928;50.546;7.120;2023-02-28T06:45:32;-2.90;81.96
13713;DHT22;6928;50.546;7.120;2023-02-28T06:47:58;-2.94;81.71
13713;DHT22;6928;50.546;7.120;2023-02-28T06:50:25;-2.96;82.06
13713;DHT22;6928;50.546;7.120;2023-02-28T06:52:54;-3.08;82.55
13713;DHT22;6928;50.546;7.120;2023-02-28T06:55:21;-2.94;82.65
13713;DHT22;6928;50.546;7.120;2023-02-28T06:57:49;-2.75;82.34
13713;DHT22;6928;50.546;7.120;2023-02-28T07:00:16;-2.59;82.10
13713;DHT22;6928;50.546;7.120;2023-02-28T07:02:43;-2.66;81.91
13713;DHT22;6928;50.546;7.120;2023-02-28T07:05:09;-2.62;82.54
13713;DHT22;6928;50.546;7.120;2023-02-28T07:07:36;-2.57;82.35
13713;DHT22;6928;50.546;7.120;2023-02-28T07:10:06;-2.49;82.88
13713;DHT22;6928;50.546;7.120;2023-02-28T07:12:32;-2.26;82.23
13713;DHT22;6928;50.546;7.120;2023-02-28T07:15:00;-1.97;81.91
13713;DHT22;6928;50.546;7.120;2023-02-28T07:17:27;-2.05;82.30
13713;DHT22;6928;50.546;7.120;2023-02-28T07:19:54;-1.94;82.11
13713;DHT22;6928;50.546;7.120;2023-02-28T07:22:20;-1.60;81.55
13713;DHT22;6928;50.546;7.120;2023-02-28T07:24:47;-1.59;80.75
13713;DHT22;6928;50.546;7.120;2023-02-28T07:27:14;-1.39;80.39
13713;DHT22;6928;50.546;7.120;2023-02-28T07:29:48;-1.02;79.98
13713;DHT22;6928;50.546;7.120;2023-02-28T07:32:16;-0.98;79.07
13713;DHT22;6928;50.546;7.120;2023-02-28T07:34:43;-0.89;79.22
13713;DHT22;6928;50.546;7.120;2023-02-28T07:37:10;-0.73;79.33
13713;DHT22;6928;50.546;7.120;2023-02-28T07:39:37;-0.67;78.46
13713;DHT22;6928;50.546;7.120;2023-02-28T07:42:04;-0.67;79.04
13713;DHT22;6928;50.546;7.120;2023-02-28T07:44:31;-0.54;77.99
13713;DHT22;6928;50.546;7.120;2023-02-28T07:46:58;-0.26;77.44
13713;DHT22;6928;50.546;7.120;2023-02-28T07:49:26;-0.97;78.66
13713;DHT22;6928;50.546;7.120;2023-02-28T07:51:52;-0.85;78.90
13713;DHT22;6928;50.546;7.120;2023-02-28T07:54:19;-0.74;78.28
13713;DHT22;6928;50.546;7.120;2023-02-28T07:56:45;-0.66;77.56
13713;DHT22;6928;50.546;7.120;2023-02-28T07:59:12;-0.71;77.86
13713;DHT22;6928;50.546;7.120;2023-02-28T08:01:38;-0.68;77.42
13713;DHT22;6928;50.546;7.120;2023-02-28T08:04:05;-0.56;77.61
13713;DHT22;6928;50.546;7.120;2023-02-28T08:06:33;-0.61;77.81
13713;DHT22;6928;50.546;7.120;2023-02-28T08:08:59;-0.61;77.20
13713;DHT22;6928;50.546;7.120;2023-02-28T08:11:26;-0.33;77.87
13713;DHT22;6928;50.546;7.120;2023-02-28T08:13:52;0.01;76.51
13713;DHT22;6928;50.546;7.120;2023-02-28T08:16:20;-0.08;77.20
13713;DHT22;6928;50.546;7.120;2023-02-28T08:18:48;0.15;76.34
13713;DHT22;6928;50.546;7.120;2023-02-28T08:21:15;0.29;75.30
13713;DHT22;6928;50.546;7.120;2023-02-28T08:23:45;0.60;75.58
13713;DHT22;6928;50.546;7.120;2023-02-28T08:26:12;0.29;75.59
13713;DHT22;6928;50.546;7.120;2023-02-28T08:28:39;0.36;75.87
13713;DHT22;6928;50.546;7.120;2023-02-28T08:31:09;0.52;75.16
13713;DHT22;6928;50.546;7.120;2023-02-28T08:33:36;0.58;74.48
13713;DHT22;6928;50.546;7.120;2023-02-28T08:36:05;0.56;72.76
13713;DHT22;6928;50.546;7.120;2023-02-28T08:38:31;0.52;72.96
13713;DHT22;6928;50.546;7.120;2023-02-28T08:41:01;0.57;73.29
13713;DHT22;6928;50.546;7.120;2023-02-28T08:43:30;0.67;72.63
13713;DHT22;6928;50.546;7.120;2023-02-28T08:45:57;0.71;71.12
13713;DHT22;6928;50.546;7.120;2023-02-28T08:48:23;0.84;70.96
13713;DHT22;6928;50.546;7.120;2023-02-28T08:50:57;1.09;69.71
13713;DHT22;6928;50.546;7.120;2023-02-28T08:53:23;1.01;68.95
13713;DHT22;6928;50.546;7.120;2023-02-28T08:55:56;1.12;68.96
13713;DHT22;6928;50.546;7.120;2023-02-28T08:58:24;0.98;69.90
13713;DHT22;6928;50.546;7.120;2023-02-28T09:00:51;1.13;69.84
13713;DHT22;6928;50.546;7.120;2023-02-28T09:03:17;1.12;69.24
13713;DHT22;6928;50.546;7.120;2023-02-28T09:05:51;1.29;69.05
13713;DHT22;6928;50.546;7.120;2023-02-28T09:08:18;1.39;68.28
13713;DHT22;6928;50.546;7.120;2023-02-28T09:10:45;1.23;67.20
13713;DHT22;6928;50.546;7.120;2023-02-28T09:13:11;1.32;67.84
13713;DHT22;6928;50.546;7.120;2023-02-28T09:15:39;1.26;67.20
13713;DHT22;6928;50.546;7.120;2023-02-28T09:18:06;1.35;65.03
13713;DHT22;6928;50.546;7.120;2023-02-28T09:20:32;1.21;65.96
13713;DHT22;6928;50.546;7.120;2023-02-28T09:22:59;1.56;66.63
13713;DHT22;6928;50.546;7.120;2023-02-28T09:25:26;1.68;63.40
13713;DHT22;6928;50.546;7.120;2023-02-28T09:27:52;1.71;62.40
13713;DHT22;6928;50.546;7.120;2023-02-28T09:30:19;1.70;61.10
13713;DHT22;6928;50.546;7.120;2023-02-28T09:32:47;1.81;61.00
13713;DHT22;6928;50.546;7.120;2023-02-28T09:35:17;1.77;60.70
13713;DHT22;6928;50.546;7.120;2023-02-28T09:37:44;1.87;60.93
13713;DHT22;6928;50.546;7.120;2023-02-28T09:40:12;2.13;59.37
13713;DHT22;6928;50.546;7.120;2023-02-28T09:42:40;2.48;57.82
13713;DHT22;6928;50.546;7.120;2023-02-28T09:45:16;2.33;57.85
13713;DHT22;6928;50.546;7.120;2023-02-28T09:47:47;2.69;57.67
13713;DHT22;6928;50.546;7.120;2023-02-28T09:50:20;2.79;56.72
13713;DHT22;6928;50.546;7.120;2023-02-28T09:52:49;2.32;56.04
13713;DHT22;6928;50.546;7.120;2023-02-28T09:55:20;2.56;57.01
13713;DHT22;6928;50.546;7.120;2023-02-28T09:57:50;2.76;57.25
13713;DHT22;6928;50.546;7.120;2023-02-28T10:00:19;2.73;56.73
13713;DHT22;6928;50.546;7.120;2023-02-28T10:05:51;2.45;56.45
13713;DHT22;6928;50.546;7.120;2023-02-28T10:08:21;2.85;56.50
13713;DHT22;6928;50.546;7.120;2023-02-28T10:10:54;3.18;55.65
13713;DHT22;6928;50.546;7.120;2023-02-28T10:13:24;3.18;54.40
13713;DHT22;6928;50.546;7.120;2023-02-28T10:15:56;3.29;54.25
13713;DHT22;6928;50.546;7.120;2023-02-28T10:18:29;3.21;54.94
13713;DHT22;6928;50.546;7.120;2023-02-28T10:20:57;2.91;55.34
13713;DHT22;6928;50.546;7.120;2023-02-28T10:23:26;3.01;55.89
13713;DHT22;6928;50.546;7.120;2023-02-28T10:25:58;3.11;55.92
13713;DHT22;6928;50.546;7.120;2023-02-28T10:28:26;3.18;55.39
13713;DHT22;6928;50.546;7.120;2023-02-28T10:30:54;3.49;54.91
13713;DHT22;6928;50.546;7.120;2023-02-28T10:33:23;3.53;54.30
13713;DHT22;6928;50.546;7.120;2023-02-28T10:35:52;3.52;52.76
13713;DHT22;6928;50.546;7.120;2023-02-28T10:38:21;3.72;51.93
13713;DHT22;6928;50.546;7.120;2023-02-28T10:40:48;3.93;51.12
13713;DHT22;6928;50.546;7.120;2023-02-28T10:43:20;3.97;51.02
13713;DHT22;6928;50.546;7.120;2023-02-28T10:46:02;4.46;51.17
13713;DHT22;6928;50.546;7.120;2023-02-28T10:48:33;4.53;50.54
13713;DHT22;6928;50.546;7.120;2023-02-28T10:51:02;4.66;48.09
13713;DHT22;6928;50.546;7.120;2023-02-28T10:53:33;4.83;46.22
13713;DHT22;6928;50.546;7.120;2023-02-28T10:56:02;5.07;47.18
13713;DHT22;6928;50.546;7.120;2023-02-28T10:58:32;4.65;45.71
13713;DHT22;6928;50.546;7.120;2023-02-28T11:01:13;5.15;46.35
13713;DHT22;6928;50.546;7.120;2023-02-28T11:03:41;5.08;44.83
13713;DHT22;6928;50.546;7.120;2023-02-28T11:06:15;4.91;44.27
13713;DHT22;6928;50.546;7.120;2023-02-28T11:08:45;5.32;43.10
13713;DHT22;6928;50.546;7.120;2023-02-28T11:11:13;4.86;43.44
13713;DHT22;6928;50.546;7.120;2023-02-28T11:13:39;4.63;43.56
13713;DHT22;6928;50.546;7.120;2023-02-28T11:16:09;4.24;44.71
13713;DHT22;6928;50.546;7.120;2023-02-28T11:18:40;4.42;45.47
13713;DHT22;6928;50.546;7.120;2023-02-28T11:21:15;4.53;45.03
13713;DHT22;6928;50.546;7.120;2023-02-28T11:23:43;4.69;44.83
13713;DHT22;6928;50.546;7.120;2023-02-28T11:26:10;4.59;44.58
13713;DHT22;6928;50.546;7.120;2023-02-28T11:28:38;4.97;44.21
13713;DHT22;6928;50.546;7.120;2023-02-28T11:31:15;5.01;44.25
13713;DHT22;6928;50.546;7.120;2023-02-28T11:33:45;4.94;44.23
13713;DHT22;6928;50.546;7.120;2023-02-28T11:36:18;5.03;43.22
13713;DHT22;6928;50.546;7.120;2023-02-28T11:38:46;5.30;43.30
13713;DHT22;6928;50.546;7.120;2023-02-28T11:41:22;5.41;43.06
13713;DHT22;6928;50.546;7.120;2023-02-28T11:44:05;5.46;42.57
13713;DHT22;6928;50.546;7.120;2023-02-28T11:46:39;5.25;42.16
13713;DHT22;6928;50.546;7.120;2023-02-28T11:49:19;5.20;42.68
13713;DHT22;6928;50.546;7.120;2023-02-28T11:51:54;5.28;42.72
13713;DHT22;6928;50.546;7.120;2023-02-28T11:54:41;5.62;42.22
13713;DHT22;6928;50.546;7.120;2023-02-28T11:57:33;5.89;42.17
13713;DHT22;6928;50.546;7.120;2023-02-28T12:00:08;5.59;41.99
13713;DHT22;6928;50.546;7.120;2023-02-28T12:02:52;5.55;42.58
13713;DHT22;6928;50.546;7.120;2023-02-28T12:05:26;5.56;42.70
13713;DHT22;6928;50.546;7.120;2023-02-28T12:08:04;5.43;43.18
13713;DHT22;6928;50.546;7.120;2023-02-28T12:10:36;5.27;43.55
13713;DHT22;6928;50.546;7.120;2023-02-28T12:13:15;5.73;41.60
13713;DHT22;6928;50.546;7.120;2023-02-28T12:15:58;5.49;42.49
13713;DHT22;6928;50.546;7.120;2023-02-28T12:18:36;5.73;41.70
13713;DHT22;6928;50.546;7.120;2023-02-28T12:21:11;5.69;42.15
13713;DHT22;6928;50.546;7.120;2023-02-28T12:23:56;5.58;42.19
13713;DHT22;6928;50.546;7.120;2023-02-28T12:26:32;5.51;42.87
13713;DHT22;6928;50.546;7.120;2023-02-28T12:29:07;6.04;41.89
13713;DHT22;6928;50.546;7.120;2023-02-28T12:31:40;6.16;41.98
13713;DHT22;6928;50.546;7.120;2023-02-28T12:34:11;6.31;41.04
13713;DHT22;6928;50.546;7.120;2023-02-28T12:36:41;6.03;41.87
13713;DHT22;6928;50.546;7.120;2023-02-28T12:39:15;6.07;41.33
13713;DHT22;6928;50.546;7.120;2023-02-28T12:41:47;5.86;42.33
13713;DHT22;6928;50.546;7.120;2023-02-28T12:44:17;6.30;41.64
13713;DHT22;6928;50.546;7.120;2023-02-28T12:46:48;6.01;42.58
13713;DHT22;6928;50.546;7.120;2023-02-28T12:49:17;5.97;42.17
13713;DHT22;6928;50.546;7.120;2023-02-28T12:51:46;5.68;42.28
13713;DHT22;6928;50.546;7.120;2023-02-28T12:54:21;5.87;41.82
13713;DHT22;6928;50.546;7.120;2023-02-28T12:56:55;5.69;42.52
13713;DHT22;6928;50.546;7.120;2023-02-28T12:59:27;5.76;42.26
13713;DHT22;6928;50.546;7.120;2023-02-28T13:02:01;5.63;42.70
13713;DHT22;6928;50.546;7.120;2023-02-28T13:04:43;5.59;42.33
13713;DHT22;6928;50.546;7.120;2023-02-28T13:07:30;6.07;41.62
13713;DHT22;6928;50.546;7.120;2023-02-28T13:10:00;6.13;41.60
13713;DHT22;6928;50.546;7.120;2023-02-28T13:12:28;6.16;42.01
13713;DHT22;6928;50.546;7.120;2023-02-28T13:15:04;5.90;41.63
13713;DHT22;6928;50.546;7.120;2023-02-28T13:17:32;6.82;42.93
13713;DHT22;6928;50.546;7.120;2023-02-28T13:19:59;6.44;41.02
13713;DHT22;6928;50.546;7.120;2023-02-28T13:22:41;6.38;41.35
13713;DHT22;6928;50.546;7.120;2023-02-28T13:34:39;5.93;42.42
13713;DHT22;6928;50.546;7.120;2023-02-28T13:37:35;6.68;41.16
13713;DHT22;6928;50.546;7.120;2023-02-28T13:40:31;5.93;42.11
13713;DHT22;6928;50.546;7.120;2023-02-28T13:43:02;5.99;42.50
13713;DHT22;6928;50.546;7.120;2023-02-28T13:45:29;5.93;42.94
13713;DHT22;6928;50.546;7.120;2023-02-28T13:48:04;5.93;42.81
13713;DHT22;6928;50.546;7.120;2023-02-28T13:50:33;5.90;42.38
13713;DHT22;6928;50.546;7.120;2023-02-28T13:53:54;6.06;43.73
13713;DHT22;6928;50.546;7.120;2023-02-28T13:56:31;5.90;43.62
13713;DHT22;6928;50.546;7.120;2023-02-28T13:59:07;5.87;43.75
13713;DHT22;6928;50.546;7.120;2023-02-28T14:01:54;6.11;43.41
13713;DHT22;6928;50.546;7.120;2023-02-28T14:04:56;5.51;43.70
13713;DHT22;6928;50.546;7.120;2023-02-28T14:07:28;5.63;43.88
13713;DHT22;6928;50.546;7.120;2023-02-28T14:10:00;6.20;43.08
13713;DHT22;6928;50.546;7.120;2023-02-28T14:12:53;6.25;43.44
13713;DHT22;6928;50.546;7.120;2023-02-28T14:15:28;5.82;43.68
13713;DHT22;6928;50.546;7.120;2023-02-28T14:17:56;5.76;43.88
13713;DHT22;6928;50.546;7.120;2023-02-28T14:20:30;5.99;44.09
13713;DHT22;6928;50.546;7.120;2023-02-28T14:23:03;6.13;43.34
13713;DHT22;6928;50.546;7.120;2023-02-28T14:25:35;5.94;43.64
13713;DHT22;6928;50.546;7.120;2023-02-28T14:28:13;5.97;43.84
13713;DHT22;6928;50.546;7.120;2023-02-28T14:31:07;5.75;43.81
13713;DHT22;6928;50.546;7.120;2023-02-28T14:33:48;6.07;44.44
13713;DHT22;6928;50.546;7.120;2023-02-28T14:36:25;5.94;44.58
13713;DHT22;6928;50.546;7.120;2023-02-28T14:38:55;5.82;44.63
13713;DHT22;6928;50.546;7.120;2023-02-28T14:41:24;6.20;44.40
13713;DHT22;6928;50.546;7.120;2023-02-28T14:43:54;6.10;44.49
13713;DHT22;6928;50.546;7.120;2023-02-28T14:46:23;5.86;44.34
13713;DHT22;6928;50.546;7.120;2023-02-28T14:48:52;5.96;44.50
13713;DHT22;6928;50.546;7.120;2023-02-28T14:51:20;6.20;43.32
13713;DHT22;6928;50.546;7.120;2023-02-28T14:53:51;6.21;43.26
13713;DHT22;6928;50.546;7.120;2023-02-28T14:56:21;6.07;43.17
13713;DHT22;6928;50.546;7.120;2023-02-28T14:58:52;6.24;43.24
13713;DHT22;6928;50.546;7.120;2023-02-28T15:01:20;6.13;43.15
13713;DHT22;6928;50.546;7.120;2023-02-28T15:03:47;6.30;43.51
13713;DHT22;6928;50.546;7.120;2023-02-28T15:06:15;5.89;44.03
13713;DHT22;6928;50.546;7.120;2023-02-28T15:08:43;5.78;44.82
13713;DHT22;6928;50.546;7.120;2023-02-28T15:11:15;5.99;45.41
13713;DHT22;6928;50.546;7.120;2023-02-28T15:13:46;5.93;44.69
13713;DHT22;6928;50.546;7.120;2023-02-28T15:16:16;6.13;43.97
13713;DHT22;6928;50.546;7.120;2023-02-28T15:18:46;5.97;44.63
13713;DHT22;6928;50.546;7.120;2023-02-28T15:21:15;5.86;44.72
13713;DHT22;6928;50.546;7.120;2023-02-28T15:23:45;5.91;44.78
13713;DHT22;6928;50.546;7.120;2023-02-28T15:26:16;6.00;45.17
13713;DHT22;6928;50.546;7.120;2023-02-28T15:28:43;5.65;45.37
13713;DHT22;6928;50.546;7.120;2023-02-28T15:31:20;5.63;45.86
13713;DHT22;6928;50.546;7.120;2023-02-28T15:33:52;5.72;45.93
13713;DHT22;6928;50.546;7.120;2023-02-28T15:36:19;5.69;45.74
13713;DHT22;6928;50.546;7.120;2023-02-28T15:38:51;5.86;45.67
13713;DHT22;6928;50.546;7.120;2023-02-28T15:41:27;6.10;45.02
13713;DHT22;6928;50.546;7.120;2023-02-28T15:44:17;6.07;44.68
13713;DHT22;6928;50.546;7.120;2023-02-28T15:46:54;6.24;44.46
13713;DHT22;6928;50.546;7.120;2023-02-28T15:49:22;6.04;44.77
13713;DHT22;6928;50.546;7.120;2023-02-28T15:51:53;6.22;44.84
13713;DHT22;6928;50.546;7.120;2023-02-28T15:54:22;5.89;45.58
13713;DHT22;6928;50.546;7.120;2023-02-28T15:56:55;5.79;45.74
13713;DHT22;6928;50.546;7.120;2023-02-28T15:59:24;5.59;46.08
13713;DHT22;6928;50.546;7.120;2023-02-28T16:02:14;5.65;46.30
13713;DHT22;6928;50.546;7.120;2023-02-28T16:04:57;5.59;46.29
13713;DHT22;6928;50.546;7.120;2023-02-28T16:07:24;5.86;45.90
13713;DHT22;6928;50.546;7.120;2023-02-28T16:09:51;5.66;46.36
13713;DHT22;6928;50.546;7.120;2023-02-28T16:12:20;5.72;46.84
13713;DHT22;6928;50.546;7.120;2023-02-28T16:14:47;5.69;46.46
13713;DHT22;6928;50.546;7.120;2023-02-28T16:17:20;5.59;46.86
13713;DHT22;6928;50.546;7.120;2023-02-28T16:19:47;5.55;47.01
13713;DHT22;6928;50.546;7.120;2023-02-28T16:22:13;5.42;47.05
13713;DHT22;6928;50.546;7.120;2023-02-28T16:24:40;5.52;47.21
13713;DHT22;6928;50.546;7.120;2023-02-28T16:27:07;5.39;47.34
13713;DHT22;6928;50.546;7.120;2023-02-28T16:29:39;5.36;47.68
13713;DHT22;6928;50.546;7.120;2023-02-28T16:32:06;5.42;47.86
13713;DHT22;6928;50.546;7.120;2023-02-28T16:34:32;5.25;47.52
13713;DHT22;6928;50.546;7.120;2023-02-28T16:36:59;5.27;47.79